Time;durP1;ratioP1;P1;durP2;ratioP2;P2;SDS_P1;SDS_P2;PMS_P1;PMS_P2;Temp;Humidity;BMP_temperature;BMP_pressure;BME280_temperature;BME280_humidity;BME280_pressure;Samples;Min_cycle;Max_cycle;Signal;HPM_P1;HPM_P2
2022/10/27 00:01:34;;;;;;;6.57;4.53;;;;;;;;;;5035843;28;20057;-87
2022/10/27 00:04:01;;;;;;;7.18;5.05;;;;;;;;;;5035200;28;20095;-87
2022/10/27 00:06:29;;;;;;;11.02;5.30;;;;;;;;;;5035806;28;20057;-87
2022/10/27 00:08:56;;;;;;;14.23;4.85;;;;;;;;;;5024019;28;20503;-87
2022/10/27 00:11:23;;;;;;;6.90;4.57;;;;;;;;;;5015549;28;20138;-87
2022/10/27 00:14:23;;;;;;;5.88;4.30;;;;;;;;;;5015667;28;20045;-87
2022/10/27 00:16:54;;;;;;;7.65;3.80;;;;;;;;;;5015853;28;20421;-87
2022/10/27 00:19:22;;;;;;;11.57;3.85;;;;;;;;;;5015459;28;20081;-87
2022/10/27 00:22:01;;;;;;;9.18;3.90;;;;;;;;;;5016305;28;20054;-87
2022/10/27 00:24:28;;;;;;;9.05;3.83;;;;;;;;;;5016846;28;20057;-87
2022/10/27 00:26:55;;;;;;;8.38;3.75;;;;;;;;;;5015666;28;20454;-87
2022/10/27 00:29:31;;;;;;;7.35;3.60;;;;;;;;;;5016600;28;20049;-85
2022/10/27 00:31:58;;;;;;;8.77;3.97;;;;;;;;;;5018817;28;20078;-84
2022/10/27 00:34:25;;;;;;;9.23;4.22;;;;;;;;;;5017893;28;20128;-84
2022/10/27 00:36:53;;;;;;;9.90;4.18;;;;;;;;;;5018317;28;20085;-84
2022/10/27 00:39:20;;;;;;;10.20;3.80;;;;;;;;;;5017212;28;20056;-84
2022/10/27 00:41:48;;;;;;;11.63;3.95;;;;;;;;;;5017731;28;20073;-85
2022/10/27 00:44:31;;;;;;;8.23;4.03;;;;;;;;;;5017822;28;20499;-84
2022/10/27 00:47:24;;;;;;;4.63;3.60;;;;;;;;;;5017965;28;20075;-84
2022/10/27 00:49:59;;;;;;;8.32;3.95;;;;;;;;;;5018150;28;20136;-84
2022/10/27 00:52:26;;;;;;;4.32;3.90;;;;;;;;;;5019097;28;20131;-84
2022/10/27 00:54:56;;;;;;;4.28;3.55;;;;;;;;;;5018108;28;20046;-84
2022/10/27 00:57:24;;;;;;;4.88;3.45;;;;;;;;;;5018557;28;20077;-84
2022/10/27 01:00:03;;;;;;;9.15;4.40;;;;;;;;;;5017476;28;20046;-84
2022/10/27 01:02:31;;;;;;;7.13;4.57;;;;;;;;;;5019899;28;20045;-84
2022/10/27 01:05:01;;;;;;;6.13;3.97;;;;;;;;;;5018792;28;20181;-84
2022/10/27 01:07:49;;;;;;;8.85;4.47;;;;;;;;;;5019425;28;20141;-84
2022/10/27 01:10:17;;;;;;;10.02;4.60;;;;;;;;;;5018587;28;20049;-84
2022/10/27 01:12:45;;;;;;;6.82;4.32;;;;;;;;;;5019426;28;20137;-86
2022/10/27 01:15:13;;;;;;;8.02;5.03;;;;;;;;;;5019266;28;20085;-84
2022/10/27 01:18:01;;;;;;;5.95;4.18;;;;;;;;;;5019280;28;20110;-84
2022/10/27 01:20:41;;;;;;;9.88;5.03;;;;;;;;;;5019461;28;20136;-85
2022/10/27 01:23:24;;;;;;;17.80;5.93;;;;;;;;;;5019089;28;20085;-84
2022/10/27 01:25:57;;;;;;;17.40;5.88;;;;;;;;;;5018499;28;20137;-84
2022/10/27 01:28:24;;;;;;;;;;;;;;;;;;5020128;28;20093;-84
2022/10/27 01:31:14;;;;;;;10.25;6.55;;;;;;;;;;5022729;28;20013;-84
2022/10/27 01:33:46;;;;;;;9.57;5.35;;;;;;;;;;5020857;28;20202;-84
2022/10/27 01:36:15;;;;;;;8.45;5.65;;;;;;;;;;5020938;28;20161;-84
2022/10/27 01:39:05;;;;;;;14.65;6.25;;;;;;;;;;5018724;28;20046;-86
2022/10/27 01:41:58;;;;;;;20.25;6.65;;;;;;;;;;5011074;28;20132;-86
2022/10/27 01:44:28;;;;;;;26.63;6.57;;;;;;;;;;5006327;28;20140;-86
2022/10/27 01:46:57;;;;;;;12.88;5.90;;;;;;;;;;5013962;28;20089;-86
2022/10/27 01:49:24;;;;;;;10.02;5.18;;;;;;;;;;5014134;28;20053;-85
2022/10/27 01:52:03;;;;;;;14.13;5.45;;;;;;;;;;5014718;28;20046;-88
2022/10/27 01:54:31;;;;;;;11.70;5.93;;;;;;;;;;5013862;28;20069;-87
2022/10/27 01:57:17;;;;;;;9.20;5.20;;;;;;;;;;5014180;28;20096;-87
2022/10/27 01:59:47;;;;;;;14.48;6.05;;;;;;;;;;5013800;28;20053;-86
2022/10/27 02:02:36;;;;;;;15.27;6.82;;;;;;;;;;5053246;23;20163;-85
2022/10/27 02:05:10;;;;;;;15.40;7.00;;;;;;;;;;5072991;28;20068;-85
2022/10/27 02:07:43;;;;;;;9.60;5.85;;;;;;;;;;5073126;28;20055;-84
2022/10/27 02:10:24;;;;;;;12.75;6.30;;;;;;;;;;5073076;28;20048;-85
2022/10/27 02:12:52;;;;;;;13.73;6.03;;;;;;;;;;5072069;28;20056;-85
2022/10/27 02:15:40;;;;;;;15.45;5.75;;;;;;;;;;5072869;28;20502;-87
2022/10/27 02:18:18;;;;;;;15.32;5.80;;;;;;;;;;5073194;28;20052;-86
2022/10/27 02:20:47;;;;;;;10.48;5.35;;;;;;;;;;5074081;28;20056;-85
2022/10/27 02:23:16;;;;;;;14.20;6.90;;;;;;;;;;5072819;28;20507;-86
2022/10/27 02:26:02;;;;;;;20.98;7.53;;;;;;;;;;5072784;28;20045;-87
2022/10/27 02:28:35;;;;;;;14.77;7.18;;;;;;;;;;5072786;28;20052;-87
2022/10/27 02:31:03;;;;;;;22.85;8.15;;;;;;;;;;5072653;28;20041;-87
2022/10/27 02:33:30;;;;;;;10.43;6.85;;;;;;;;;;5072624;28;20566;-87
2022/10/27 02:35:57;;;;;;;11.77;7.43;;;;;;;;;;5091182;28;20057;-85
2022/10/27 02:38:24;;;;;;;15.98;7.57;;;;;;;;;;5074755;28;20053;-85
2022/10/27 02:40:51;;;;;;;14.10;6.72;;;;;;;;;;5072639;28;20055;-87
2022/10/27 02:43:18;;;;;;;11.85;6.63;;;;;;;;;;5072586;28;20055;-85
2022/10/27 02:45:46;;;;;;;12.95;6.78;;;;;;;;;;5072502;28;20057;-85
2022/10/27 02:48:13;;;;;;;11.52;6.45;;;;;;;;;;5072448;28;20051;-85
2022/10/27 02:50:40;;;;;;;18.77;7.25;;;;;;;;;;5072354;28;20493;-86
2022/10/27 02:53:07;;;;;;;15.15;6.88;;;;;;;;;;5072639;28;20489;-85
2022/10/27 02:55:34;;;;;;;13.95;6.63;;;;;;;;;;5072433;28;20060;-85
2022/10/27 02:58:04;;;;;;;14.18;6.57;;;;;;;;;;5072644;28;20044;-85
2022/10/27 03:00:31;;;;;;;25.17;8.27;;;;;;;;;;5072330;28;20040;-86
2022/10/27 03:02:59;;;;;;;29.80;9.52;;;;;;;;;;5071648;28;20516;-87
2022/10/27 03:05:26;;;;;;;16.23;7.05;;;;;;;;;;5072275;28;20048;-87
2022/10/27 03:07:53;;;;;;;27.60;9.13;;;;;;;;;;5072222;28;20054;-87
2022/10/27 03:10:20;;;;;;;23.80;7.03;;;;;;;;;;5072252;28;20513;-85
2022/10/27 03:12:48;;;;;;;13.60;6.93;;;;;;;;;;5072131;28;20416;-85
2022/10/27 03:15:15;;;;;;;9.30;5.60;;;;;;;;;;5071947;28;20453;-85
2022/10/27 03:17:44;;;;;;;14.57;6.20;;;;;;;;;;5072122;28;20060;-87
2022/10/27 03:20:12;;;;;;;15.65;6.38;;;;;;;;;;5072159;28;20055;-87
2022/10/27 03:22:39;;;;;;;14.00;6.90;;;;;;;;;;5072570;28;20060;-87
2022/10/27 03:25:07;;;;;;;14.55;5.95;;;;;;;;;;5076384;28;20497;-85
2022/10/27 03:27:35;;;;;;;12.07;6.32;;;;;;;;;;5075973;28;20081;-85
2022/10/27 03:30:02;;;;;;;11.45;6.72;;;;;;;;;;5075824;28;20493;-88
2022/10/27 03:32:29;;;;;;;10.40;5.43;;;;;;;;;;5076030;28;20074;-85
2022/10/27 03:34:56;;;;;;;12.50;6.03;;;;;;;;;;5076453;28;20049;-86
2022/10/27 03:37:23;;;;;;;20.08;8.48;;;;;;;;;;5076236;28;20059;-85
2022/10/27 03:39:50;;;;;;;9.68;5.88;;;;;;;;;;5075846;28;20044;-85
2022/10/27 03:42:18;;;;;;;19.92;7.13;;;;;;;;;;5075949;28;20052;-86
2022/10/27 03:44:45;;;;;;;17.83;8.23;;;;;;;;;;5075199;28;20045;-85
2022/10/27 03:47:12;;;;;;;23.20;9.23;;;;;;;;;;5075828;28;20045;-84
2022/10/27 03:49:39;;;;;;;20.27;8.10;;;;;;;;;;5077199;28;20056;-86
2022/10/27 03:52:06;;;;;;;29.27;9.52;;;;;;;;;;5096250;28;20148;-86
2022/10/27 03:54:33;;;;;;;21.17;8.57;;;;;;;;;;5080041;28;20044;-85
2022/10/27 03:57:01;;;;;;;24.48;9.55;;;;;;;;;;5076671;28;20063;-86
2022/10/27 03:59:28;;;;;;;23.55;9.70;;;;;;;;;;5075524;28;20044;-85
2022/10/27 04:01:55;;;;;;;19.38;9.77;;;;;;;;;;5075393;28;20408;-85
2022/10/27 04:04:22;;;;;;;20.77;10.63;;;;;;;;;;5075517;28;20055;-85
2022/10/27 04:06:50;;;;;;;25.95;12.30;;;;;;;;;;5076498;28;20045;-85
2022/10/27 04:09:17;;;;;;;14.18;9.30;;;;;;;;;;5075364;28;20052;-84
2022/10/27 04:11:44;;;;;;;22.95;10.50;;;;;;;;;;5076137;28;20067;-86
2022/10/27 04:14:11;;;;;;;17.48;9.48;;;;;;;;;;5076399;28;20048;-85
2022/10/27 04:16:38;;;;;;;13.45;8.88;;;;;;;;;;5075332;28;20075;-85
2022/10/27 04:19:06;;;;;;;19.42;9.48;;;;;;;;;;5075336;28;20481;-85
2022/10/27 04:21:33;;;;;;;23.73;9.98;;;;;;;;;;5076013;28;20079;-85
2022/10/27 04:24:00;;;;;;;11.38;7.53;;;;;;;;;;5074971;28;20047;-85
2022/10/27 04:26:27;;;;;;;14.80;9.18;;;;;;;;;;5074777;28;20048;-85
2022/10/27 04:28:54;;;;;;;12.98;7.82;;;;;;;;;;5075022;28;20056;-85
2022/10/27 04:31:22;;;;;;;16.10;6.93;;;;;;;;;;5074921;28;20484;-85
2022/10/27 04:33:49;;;;;;;12.63;8.10;;;;;;;;;;5074860;28;20066;-85
2022/10/27 04:36:16;;;;;;;13.65;7.78;;;;;;;;;;5073964;28;20045;-85
2022/10/27 04:38:43;;;;;;;11.15;5.90;;;;;;;;;;5074671;28;20421;-85
2022/10/27 04:41:11;;;;;;;8.32;6.45;;;;;;;;;;5074744;28;20056;-85
2022/10/27 04:43:38;;;;;;;14.95;7.35;;;;;;;;;;5075010;28;20051;-85
2022/10/27 04:46:05;;;;;;;21.85;9.40;;;;;;;;;;5075793;28;20481;-85
2022/10/27 04:48:32;;;;;;;21.17;7.80;;;;;;;;;;5074574;28;20487;-85
2022/10/27 04:50:59;;;;;;;10.55;6.25;;;;;;;;;;5074369;28;20044;-86
2022/10/27 04:53:27;;;;;;;22.60;9.10;;;;;;;;;;5075149;28;20052;-85
2022/10/27 04:55:54;;;;;;;20.33;7.97;;;;;;;;;;5074631;28;20045;-85
2022/10/27 04:58:21;;;;;;;19.35;7.03;;;;;;;;;;5075499;28;20048;-85
2022/10/27 05:00:48;;;;;;;15.23;7.70;;;;;;;;;;5074488;28;20044;-85
2022/10/27 05:03:16;;;;;;;11.73;7.05;;;;;;;;;;5075158;28;20053;-85
2022/10/27 05:05:43;;;;;;;31.67;18.60;;;;;;;;;;5074671;28;20485;-85
2022/10/27 05:08:10;;;;;;;43.75;24.73;;;;;;;;;;5094811;28;20109;-85
2022/10/27 05:10:38;;;;;;;64.93;33.83;;;;;;;;;;5076508;28;20064;-85
2022/10/27 05:13:05;;;;;;;44.67;25.27;;;;;;;;;;5075014;28;20056;-84
2022/10/27 05:15:32;;;;;;;43.13;22.52;;;;;;;;;;5074413;28;20044;-85
2022/10/27 05:17:59;;;;;;;66.00;33.53;;;;;;;;;;5074308;28;20052;-85
2022/10/27 05:20:27;;;;;;;53.40;28.08;;;;;;;;;;5073939;28;20052;-84
2022/10/27 05:22:54;;;;;;;70.88;42.45;;;;;;;;;;5073762;28;20048;-85
2022/10/27 05:25:21;;;;;;;55.17;30.90;;;;;;;;;;5074833;28;20058;-84
2022/10/27 05:27:48;;;;;;;41.10;21.55;;;;;;;;;;5073515;28;20051;-85
2022/10/27 05:30:16;;;;;;;28.83;13.20;;;;;;;;;;5074653;28;20053;-84
2022/10/27 05:32:43;;;;;;;17.45;8.82;;;;;;;;;;5073189;28;20511;-85
2022/10/27 05:35:13;;;;;;;14.05;8.85;;;;;;;;;;5073168;28;20052;-85
2022/10/27 05:37:44;;;;;;;12.52;8.02;;;;;;;;;;5073418;28;20056;-85
2022/10/27 05:40:12;;;;;;;12.68;8.93;;;;;;;;;;5073491;28;20132;-85
2022/10/27 05:42:39;;;;;;;11.07;8.20;;;;;;;;;;5073207;28;20045;-84
2022/10/27 05:45:06;;;;;;;18.50;8.50;;;;;;;;;;5073192;28;20048;-85
2022/10/27 05:47:33;;;;;;;21.38;8.65;;;;;;;;;;5072818;28;20052;-85
2022/10/27 05:50:01;;;;;;;15.80;7.85;;;;;;;;;;5073151;28;20048;-85
2022/10/27 05:52:28;;;;;;;25.63;8.77;;;;;;;;;;5074233;28;20053;-85
2022/10/27 05:54:58;;;;;;;20.83;8.27;;;;;;;;;;5074179;28;20036;-85
2022/10/27 05:57:25;;;;;;;45.33;10.77;;;;;;;;;;5073097;28;20048;-85
2022/10/27 05:59:52;;;;;;;25.38;10.00;;;;;;;;;;5072711;28;20045;-85
2022/10/27 06:02:19;;;;;;;20.10;9.80;;;;;;;;;;5072473;28;20056;-85
2022/10/27 06:04:47;;;;;;;22.75;8.93;;;;;;;;;;5072974;28;20142;-85
2022/10/27 06:07:14;;;;;;;23.23;8.80;;;;;;;;;;5073188;28;20047;-85
2022/10/27 06:09:41;;;;;;;17.10;7.90;;;;;;;;;;5074053;28;20048;-85
2022/10/27 06:12:09;;;;;;;35.65;11.20;;;;;;;;;;5072782;28;20102;-85
2022/10/27 06:14:36;;;;;;;48.45;12.25;;;;;;;;;;5072837;28;20052;-86
2022/10/27 06:17:03;;;;;;;53.00;12.40;;;;;;;;;;5073485;28;20059;-85
2022/10/27 06:19:30;;;;;;;27.13;9.63;;;;;;;;;;5072957;28;20063;-85
2022/10/27 06:21:57;;;;;;;38.28;11.00;;;;;;;;;;5073314;28;20052;-85
2022/10/27 06:24:25;;;;;;;27.50;10.18;;;;;;;;;;5092331;28;20068;-86
2022/10/27 06:26:52;;;;;;;35.55;10.80;;;;;;;;;;5076112;28;20052;-85
2022/10/27 06:29:23;;;;;;;30.50;9.82;;;;;;;;;;5072954;28;20127;-85
2022/10/27 06:31:52;;;;;;;31.63;10.50;;;;;;;;;;5072669;28;20048;-85
2022/10/27 06:34:21;;;;;;;20.33;8.65;;;;;;;;;;5072720;28;20048;-85
2022/10/27 06:36:48;;;;;;;32.13;11.13;;;;;;;;;;5072504;28;20036;-85
2022/10/27 06:39:15;;;;;;;27.63;9.82;;;;;;;;;;5072247;28;20135;-85
2022/10/27 06:41:42;;;;;;;12.82;6.43;;;;;;;;;;5072465;28;20058;-85
2022/10/27 06:44:09;;;;;;;26.27;8.80;;;;;;;;;;5073467;28;20052;-85
2022/10/27 06:46:38;;;;;;;15.82;6.40;;;;;;;;;;5072614;28;20067;-85
2022/10/27 06:49:06;;;;;;;19.40;7.43;;;;;;;;;;5072486;28;20060;-85
2022/10/27 06:51:33;;;;;;;15.80;7.35;;;;;;;;;;5072099;28;20404;-85
2022/10/27 06:54:00;;;;;;;27.65;10.55;;;;;;;;;;5072041;28;20055;-85
2022/10/27 06:56:27;;;;;;;16.40;6.40;;;;;;;;;;5072290;28;20054;-86
2022/10/27 06:58:54;;;;;;;13.50;6.60;;;;;;;;;;5071971;28;20053;-85
2022/10/27 07:01:22;;;;;;;30.40;8.30;;;;;;;;;;5072120;28;20144;-84
2022/10/27 07:03:50;;;;;;;16.67;6.60;;;;;;;;;;5073070;28;20064;-84
2022/10/27 07:06:17;;;;;;;16.02;6.85;;;;;;;;;;5072992;28;20131;-85
2022/10/27 07:08:46;;;;;;;12.00;5.93;;;;;;;;;;5072233;28;20051;-84
2022/10/27 07:11:13;;;;;;;20.35;7.78;;;;;;;;;;5072358;28;20459;-84
2022/10/27 07:13:40;;;;;;;31.77;9.45;;;;;;;;;;5072001;28;20045;-84
2022/10/27 07:16:09;;;;;;;32.75;10.90;;;;;;;;;;5072158;28;20049;-85
2022/10/27 07:18:37;;;;;;;59.72;12.35;;;;;;;;;;5072005;28;20088;-85
2022/10/27 07:21:05;;;;;;;30.08;9.90;;;;;;;;;;5072110;28;20140;-86
2022/10/27 07:23:32;;;;;;;13.98;6.60;;;;;;;;;;5071979;28;20151;-84
2022/10/27 07:25:59;;;;;;;11.60;6.00;;;;;;;;;;5072075;28;20071;-84
2022/10/27 07:28:26;;;;;;;12.90;6.43;;;;;;;;;;5071991;28;20072;-84
2022/10/27 07:30:54;;;;;;;13.48;7.57;;;;;;;;;;5071980;28;20063;-85
2022/10/27 07:33:22;;;;;;;16.27;9.52;;;;;;;;;;5071472;28;20052;-84
2022/10/27 07:35:50;;;;;;;18.20;7.97;;;;;;;;;;5071304;28;20503;-84
2022/10/27 07:38:17;;;;;;;13.13;7.60;;;;;;;;;;5071867;28;20048;-84
2022/10/27 07:40:45;;;;;;;18.77;10.32;;;;;;;;;;5090227;28;20056;-85
2022/10/27 07:43:12;;;;;;;18.80;11.82;;;;;;;;;;5073683;28;20485;-84
2022/10/27 07:45:40;;;;;;;18.10;9.82;;;;;;;;;;5071480;28;20048;-84
2022/10/27 07:48:11;;;;;;;13.68;6.72;;;;;;;;;;5071235;28;20413;-84
2022/10/27 07:50:38;;;;;;;17.02;10.25;;;;;;;;;;5068989;28;20140;-84
2022/10/27 07:53:06;;;;;;;19.20;9.48;;;;;;;;;;5062937;28;20052;-84
2022/10/27 07:55:35;;;;;;;15.15;7.25;;;;;;;;;;5069971;28;20041;-84
2022/10/27 07:58:07;;;;;;;9.07;6.05;;;;;;;;;;5070735;28;20052;-85
2022/10/27 08:00:36;;;;;;;13.13;4.55;;;;;;;;;;5070499;28;20048;-84
2022/10/27 08:03:04;;;;;;;8.98;4.50;;;;;;;;;;5071134;28;20062;-84
2022/10/27 08:05:36;;;;;;;8.27;4.68;;;;;;;;;;5070960;28;20492;-85
2022/10/27 08:08:04;;;;;;;10.60;7.25;;;;;;;;;;5064461;28;20147;-84
2022/10/27 08:10:32;;;;;;;15.30;7.35;;;;;;;;;;5066928;28;20052;-83
2022/10/27 08:13:00;;;;;;;15.85;8.63;;;;;;;;;;5074420;28;20049;-82
2022/10/27 08:15:27;;;;;;;12.38;6.13;;;;;;;;;;5074784;28;20504;-83
2022/10/27 08:17:56;;;;;;;7.50;3.90;;;;;;;;;;5075281;28;20071;-84
2022/10/27 08:20:24;;;;;;;3.63;2.88;;;;;;;;;;5075306;28;20404;-84
2022/10/27 08:22:58;;;;;;;3.90;2.40;;;;;;;;;;5067578;28;20052;-83
2022/10/27 08:25:25;;;;;;;4.85;2.20;;;;;;;;;;5063219;28;20048;-84
2022/10/27 08:27:53;;;;;;;2.40;1.92;;;;;;;;;;5074882;28;20049;-85
2022/10/27 08:30:21;;;;;;;3.80;2.58;;;;;;;;;;5074822;28;20098;-85
2022/10/27 08:32:49;;;;;;;6.45;2.65;;;;;;;;;;5074758;28;20548;-84
2022/10/27 08:35:17;;;;;;;4.82;2.05;;;;;;;;;;5074331;28;20127;-85
2022/10/27 08:37:44;;;;;;;8.32;2.45;;;;;;;;;;5074640;28;20052;-83
2022/10/27 08:40:11;;;;;;;9.52;2.70;;;;;;;;;;5067066;28;20416;-84
2022/10/27 08:42:41;;;;;;;10.75;2.55;;;;;;;;;;5058163;28;20056;-84
2022/10/27 08:45:12;;;;;;;6.43;2.53;;;;;;;;;;5059127;28;20047;-85
2022/10/27 08:47:39;;;;;;;6.03;2.40;;;;;;;;;;5074274;28;20560;-83
2022/10/27 08:50:17;;;;;;;11.18;3.08;;;;;;;;;;5074459;28;20052;-84
2022/10/27 08:52:53;;;;;;;11.30;2.75;;;;;;;;;;5073756;28;20067;-83
2022/10/27 08:55:26;;;;;;;4.53;2.30;;;;;;;;;;5074346;28;20076;-84
2022/10/27 08:57:58;;;;;;;8.50;2.50;;;;;;;;;;5081721;28;20055;-84
2022/10/27 09:00:27;;;;;;;12.68;2.70;;;;;;;;;;5054306;28;20041;-85
2022/10/27 09:02:54;;;;;;;19.50;3.15;;;;;;;;;;5053535;28;20064;-85
2022/10/27 09:05:40;;;;;;;20.55;3.00;;;;;;;;;;5053312;28;20057;-85
2022/10/27 09:08:34;;;;;;;16.92;2.80;;;;;;;;;;5054595;28;20053;-85
2022/10/27 09:11:25;;;;;;;30.02;4.00;;;;;;;;;;5052888;28;20075;-85
2022/10/27 09:14:00;;;;;;;20.40;3.40;;;;;;;;;;5054403;28;20052;-83
2022/10/27 09:16:33;;;;;;;16.85;3.33;;;;;;;;;;5052336;28;20045;-83
2022/10/27 09:19:02;;;;;;;19.17;3.75;;;;;;;;;;5053393;28;20047;-83
2022/10/27 09:21:31;;;;;;;19.27;3.40;;;;;;;;;;5052843;28;20057;-84
2022/10/27 09:24:01;;;;;;;22.92;3.63;;;;;;;;;;5053342;28;20044;-84
2022/10/27 09:26:30;;;;;;;20.10;3.10;;;;;;;;;;5052960;28;20499;-83
2022/10/27 09:28:59;;;;;;;19.40;3.00;;;;;;;;;;5054360;28;20059;-83
2022/10/27 09:31:39;;;;;;;7.50;2.05;;;;;;;;;;5054359;28;20045;-82
2022/10/27 09:34:25;;;;;;;40.90;4.85;;;;;;;;;;5061212;28;20056;-83
2022/10/27 09:36:53;;;;;;;10.30;2.30;;;;;;;;;;5072907;28;20052;-84
2022/10/27 09:39:21;;;;;;;7.03;1.88;;;;;;;;;;5072561;28;20053;-83
2022/10/27 09:41:49;;;;;;;7.25;1.90;;;;;;;;;;5070857;28;20044;-84
2022/10/27 09:44:20;;;;;;;6.13;1.70;;;;;;;;;;5072433;28;20051;-83
2022/10/27 09:46:53;;;;;;;8.90;1.88;;;;;;;;;;5072513;28;20056;-83
2022/10/27 09:49:34;;;;;;;35.90;3.47;;;;;;;;;;5071864;28;20053;-83
2022/10/27 09:52:05;;;;;;;6.53;1.80;;;;;;;;;;5073915;28;20048;-83
2022/10/27 09:54:33;;;;;;;2.55;1.52;;;;;;;;;;5071561;28;20061;-83
2022/10/27 09:57:05;;;;;;;1.70;1.20;;;;;;;;;;5072447;28;20051;-82
2022/10/27 09:59:34;;;;;;;2.10;1.30;;;;;;;;;;5072239;28;20048;-82
2022/10/27 10:02:04;;;;;;;4.05;1.05;;;;;;;;;;5072279;28;20066;-82
2022/10/27 10:04:36;;;;;;;2.75;1.70;;;;;;;;;;5072047;28;20132;-82
2022/10/27 10:07:05;;;;;;;4.03;1.25;;;;;;;;;;5073651;28;20431;-82
2022/10/27 10:09:38;;;;;;;3.88;1.30;;;;;;;;;;5072125;28;20048;-82
2022/10/27 10:12:16;;;;;;;2.05;1.10;;;;;;;;;;5075318;28;20103;-81
2022/10/27 10:14:49;;;;;;;;;;;;;;;;;;5084947;28;20060;-82
2022/10/27 10:17:20;;;;;;;3.15;1.20;;;;;;;;;;5072743;28;19920;-82
2022/10/27 10:19:48;;;;;;;4.72;1.02;;;;;;;;;;5073260;28;20044;-81
2022/10/27 10:22:24;;;;;;;5.18;0.90;;;;;;;;;;5073214;28;20048;-82
2022/10/27 10:24:51;;;;;;;4.78;1.20;;;;;;;;;;5072678;28;20416;-82
2022/10/27 10:27:27;;;;;;;6.40;1.40;;;;;;;;;;5072283;28;20049;-82
2022/10/27 10:29:55;;;;;;;9.75;1.48;;;;;;;;;;5073375;28;20048;-83
2022/10/27 10:32:24;;;;;;;2.90;1.30;;;;;;;;;;5071538;28;20481;-82
2022/10/27 10:34:52;;;;;;;2.15;0.90;;;;;;;;;;5069194;28;20404;-82
2022/10/27 10:37:38;;;;;;;8.68;1.35;;;;;;;;;;5064044;28;20474;-82
2022/10/27 10:40:17;;;;;;;4.63;1.00;;;;;;;;;;5071076;28;20047;-82
2022/10/27 10:42:49;;;;;;;11.00;1.70;;;;;;;;;;5072477;28;20074;-82
2022/10/27 10:45:18;;;;;;;3.45;1.20;;;;;;;;;;5071714;28;20512;-82
2022/10/27 10:47:47;;;;;;;5.93;1.38;;;;;;;;;;5071428;28;20048;-82
2022/10/27 10:50:15;;;;;;;7.80;2.10;;;;;;;;;;5073064;28;20048;-81
2022/10/27 10:52:47;;;;;;;2.13;1.13;;;;;;;;;;5072630;28;20147;-82
2022/10/27 10:55:19;;;;;;;3.00;1.17;;;;;;;;;;5072935;28;20060;-82
2022/10/27 10:57:47;;;;;;;1.40;0.90;;;;;;;;;;5072640;28;20052;-82
2022/10/27 11:00:15;;;;;;;5.13;1.90;;;;;;;;;;5072267;28;20049;-82
2022/10/27 11:02:43;;;;;;;3.95;1.60;;;;;;;;;;5071502;28;20053;-82
2022/10/27 11:05:11;;;;;;;6.10;1.60;;;;;;;;;;5072609;28;20059;-82
2022/10/27 11:07:39;;;;;;;6.03;2.00;;;;;;;;;;5071580;28;20489;-83
2022/10/27 11:10:12;;;;;;;2.88;1.02;;;;;;;;;;5073035;28;20061;-82
2022/10/27 11:12:42;;;;;;;4.45;1.30;;;;;;;;;;5072856;28;20064;-82
2022/10/27 11:15:15;;;;;;;3.65;1.33;;;;;;;;;;5072780;28;20072;-82
2022/10/27 11:17:42;;;;;;;;;;;;;;;;;;5072232;28;20048;-83
2022/10/27 11:20:15;;;;;;;2.08;0.82;;;;;;;;;;5071430;28;19924;-82
2022/10/27 11:22:43;;;;;;;6.40;1.23;;;;;;;;;;5071367;28;20143;-82
2022/10/27 11:25:16;;;;;;;2.70;0.90;;;;;;;;;;5071036;28;20142;-82
2022/10/27 11:27:59;;;;;;;2.08;0.85;;;;;;;;;;5072808;28;20049;-82
2022/10/27 11:30:27;;;;;;;5.22;0.82;;;;;;;;;;5083617;28;20066;-85
2022/10/27 11:32:54;;;;;;;3.90;0.70;;;;;;;;;;5072432;28;20053;-83
2022/10/27 11:35:28;;;;;;;1.98;1.00;;;;;;;;;;5071252;28;20059;-81
2022/10/27 11:38:05;;;;;;;14.63;3.90;;;;;;;;;;5072545;28;20135;-82
2022/10/27 11:40:55;;;;;;;3.33;1.10;;;;;;;;;;5072736;28;20051;-82
2022/10/27 11:43:29;;;;;;;1.67;0.70;;;;;;;;;;5063784;28;20480;-83
2022/10/27 11:46:00;;;;;;;3.08;1.08;;;;;;;;;;5075356;28;20048;-83
2022/10/27 11:48:32;;;;;;;2.83;0.88;;;;;;;;;;5076706;28;20052;-83
2022/10/27 11:51:05;;;;;;;3.05;0.82;;;;;;;;;;5076709;28;20053;-83
2022/10/27 11:53:32;;;;;;;2.80;1.08;;;;;;;;;;5075268;28;20056;-82
2022/10/27 11:56:21;;;;;;;3.65;0.60;;;;;;;;;;5076466;28;20056;-82
2022/10/27 11:58:48;;;;;;;0.98;0.65;;;;;;;;;;5075602;28;20368;-83
2022/10/27 12:01:31;;;;;;;2.47;1.08;;;;;;;;;;5075290;28;20060;-83
2022/10/27 12:04:04;;;;;;;4.85;0.77;;;;;;;;;;5058461;28;20136;-83
2022/10/27 12:06:42;;;;;;;3.72;1.20;;;;;;;;;;5074829;28;20052;-85
2022/10/27 12:09:09;;;;;;;3.58;1.08;;;;;;;;;;5075153;28;20049;-84
2022/10/27 12:11:42;;;;;;;0.68;0.65;;;;;;;;;;5075097;28;20501;-84
2022/10/27 12:14:09;;;;;;;1.77;0.52;;;;;;;;;;5076087;28;20139;-85
2022/10/27 12:16:39;;;;;;;3.08;0.95;;;;;;;;;;5074981;28;20047;-85
2022/10/27 12:19:15;;;;;;;2.75;0.88;;;;;;;;;;5074678;28;20408;-85
2022/10/27 12:22:02;;;;;;;1.20;1.10;;;;;;;;;;5074638;28;20048;-84
2022/10/27 12:24:30;;;;;;;2.95;0.80;;;;;;;;;;5074440;28;20057;-86
2022/10/27 12:26:59;;;;;;;2.90;1.10;;;;;;;;;;5075818;28;20048;-85
2022/10/27 12:29:29;;;;;;;14.38;1.25;;;;;;;;;;5074748;28;20057;-84
2022/10/27 12:32:02;;;;;;;30.02;2.75;;;;;;;;;;5074513;28;20488;-83
2022/10/27 12:34:32;;;;;;;3.00;0.82;;;;;;;;;;5074689;28;20453;-83
2022/10/27 12:37:04;;;;;;;3.13;1.15;;;;;;;;;;5074681;28;20052;-85
2022/10/27 12:39:37;;;;;;;2.67;1.20;;;;;;;;;;5074545;28;20408;-87
2022/10/27 12:42:07;;;;;;;13.38;2.58;;;;;;;;;;5074806;28;20060;-85
2022/10/27 12:44:38;;;;;;;14.50;1.95;;;;;;;;;;5074836;28;20135;-87
2022/10/27 12:47:24;;;;;;;13.93;2.75;;;;;;;;;;5091027;28;20087;-86
2022/10/27 12:49:58;;;;;;;10.13;3.05;;;;;;;;;;5076874;28;20500;-86
2022/10/27 12:52:26;;;;;;;3.40;1.13;;;;;;;;;;5075418;28;20063;-87
2022/10/27 12:55:03;;;;;;;5.55;1.48;;;;;;;;;;5074496;28;20067;-85
2022/10/27 12:57:39;;;;;;;9.38;1.42;;;;;;;;;;5074160;28;20131;-88
2022/10/27 13:00:10;;;;;;;2.80;1.02;;;;;;;;;;5074751;28;20051;-86
2022/10/27 13:02:44;;;;;;;6.32;1.40;;;;;;;;;;5074340;28;20489;-86
2022/10/27 13:05:33;;;;;;;8.52;1.80;;;;;;;;;;5073564;28;20512;-85
2022/10/27 13:08:21;;;;;;;5.25;1.20;;;;;;;;;;5075790;28;20048;-87
2022/10/27 13:11:06;;;;;;;5.68;1.42;;;;;;;;;;5074078;28;20473;-86
2022/10/27 13:13:44;;;;;;;4.65;1.10;;;;;;;;;;5074011;28;20492;-87
2022/10/27 13:16:31;;;;;;;5.72;1.83;;;;;;;;;;5074194;28;20059;-83
2022/10/27 13:19:10;;;;;;;5.40;1.63;;;;;;;;;;5075106;28;20063;-84
2022/10/27 13:21:43;;;;;;;6.47;1.60;;;;;;;;;;5074847;28;20416;-84
2022/10/27 13:24:46;;;;;;;3.92;1.42;;;;;;;;;;5073740;28;20056;-86
2022/10/27 13:27:19;;;;;;;2.28;1.20;;;;;;;;;;5016642;28;20192;-85
2022/10/27 13:30:09;;;;;;;9.23;1.73;;;;;;;;;;5068442;28;20134;-86
2022/10/27 13:32:48;;;;;;;8.40;1.70;;;;;;;;;;5065594;28;20049;-87
2022/10/27 13:35:16;;;;;;;6.18;1.60;;;;;;;;;;5073372;28;20403;-85
2022/10/27 13:38:09;;;;;;;7.88;1.95;;;;;;;;;;5073399;28;20061;-85
2022/10/27 13:40:38;;;;;;;4.37;1.30;;;;;;;;;;5073242;28;20397;-85
2022/10/27 13:43:23;;;;;;;3.75;1.30;;;;;;;;;;5073176;28;20298;-85
2022/10/27 13:45:52;;;;;;;3.20;1.40;;;;;;;;;;5073265;28;20056;-88
2022/10/27 13:48:19;;;;;;;6.88;1.20;;;;;;;;;;5073334;28;20049;-83
2022/10/27 13:50:49;;;;;;;3.22;1.40;;;;;;;;;;5073269;28;20060;-88
2022/10/27 13:53:16;;;;;;;2.80;1.55;;;;;;;;;;5073158;28;20048;-86
2022/10/27 13:55:44;;;;;;;3.38;1.27;;;;;;;;;;5073452;28;20055;-84
2022/10/27 13:58:15;;;;;;;5.95;1.50;;;;;;;;;;5073639;28;20072;-84
2022/10/27 14:00:42;;;;;;;7.20;1.40;;;;;;;;;;5073246;28;20055;-84
2022/10/27 14:03:21;;;;;;;4.15;1.42;;;;;;;;;;5080463;28;20052;-84
2022/10/27 14:05:49;;;;;;;2.00;1.30;;;;;;;;;;5074525;28;20064;-84
2022/10/27 14:08:18;;;;;;;9.32;1.40;;;;;;;;;;5073343;28;20484;-83
2022/10/27 14:10:45;;;;;;;9.85;1.73;;;;;;;;;;5073045;28;20048;-85
2022/10/27 14:13:18;;;;;;;3.50;1.55;;;;;;;;;;5073211;28;20044;-86
2022/10/27 14:15:46;;;;;;;5.57;1.77;;;;;;;;;;5073146;28;20055;-84
2022/10/27 14:18:30;;;;;;;3.85;1.48;;;;;;;;;;5072973;28;20102;-84
2022/10/27 14:21:00;;;;;;;1.77;1.67;;;;;;;;;;5073391;28;20492;-84
2022/10/27 14:23:29;;;;;;;12.35;2.28;;;;;;;;;;5073034;28;20123;-83
2022/10/27 14:25:56;;;;;;;45.13;5.07;;;;;;;;;;5072367;28;20049;-85
2022/10/27 14:28:24;;;;;;;10.40;2.40;;;;;;;;;;5072448;28;20055;-84
2022/10/27 14:31:18;;;;;;;5.78;1.40;;;;;;;;;;5072714;28;20156;-84
2022/10/27 14:33:46;;;;;;;3.28;1.83;;;;;;;;;;5070453;28;20047;-84
2022/10/27 14:36:23;;;;;;;8.90;2.03;;;;;;;;;;5072619;28;20131;-83
2022/10/27 14:38:53;;;;;;;70.55;7.40;;;;;;;;;;5073645;28;20282;-83
2022/10/27 14:41:22;;;;;;;168.43;15.63;;;;;;;;;;5073544;28;20048;-85
2022/10/27 14:43:51;;;;;;;22.88;3.60;;;;;;;;;;5072541;28;20054;-85
2022/10/27 14:46:20;;;;;;;36.67;4.47;;;;;;;;;;5072731;28;20386;-85
2022/10/27 14:49:01;;;;;;;73.45;8.65;;;;;;;;;;5072344;28;20044;-85
2022/10/27 14:51:31;;;;;;;36.22;5.10;;;;;;;;;;5072652;28;20045;-85
2022/10/27 14:53:58;;;;;;;32.20;5.22;;;;;;;;;;5063774;28;20508;-85
2022/10/27 14:56:30;;;;;;;22.60;3.40;;;;;;;;;;5067210;28;20048;-85
2022/10/27 14:58:58;;;;;;;26.10;3.55;;;;;;;;;;5060947;28;20048;-84